sensor_id;sensor_type;location;lat;lon;timestamp;P1;durP1;ratioP1;P2;durP2;ratioP2
35689;SDS011;26977;44.830;-0.674;2022-12-17T00:01:00;15.18;;;6.90;;
35689;SDS011;26977;44.830;-0.674;2022-12-17T00:03:44;14.85;;;7.47;;
35689;SDS011;26977;44.830;-0.674;2022-12-17T00:06:29;13.60;;;6.43;;
35689;SDS011;26977;44.830;-0.674;2022-12-17T00:09:14;12.15;;;6.15;;
35689;SDS011;26977;44.830;-0.674;2022-12-17T00:11:58;13.20;;;6.40;;
35689;SDS011;26977;44.830;-0.674;2022-12-17T00:14:42;14.05;;;6.57;;
35689;SDS011;26977;44.830;-0.674;2022-12-17T00:17:26;12.55;;;6.30;;
35689;SDS011;26977;44.830;-0.674;2022-12-17T00:20:11;13.27;;;6.28;;
35689;SDS011;26977;44.830;-0.674;2022-12-17T00:23:02;14.38;;;6.80;;
35689;SDS011;26977;44.830;-0.674;2022-12-17T00:25:54;15.30;;;7.63;;
35689;SDS011;26977;44.830;-0.674;2022-12-17T00:28:39;14.55;;;7.25;;
35689;SDS011;26977;44.830;-0.674;2022-12-17T00:31:25;15.77;;;7.88;;
35689;SDS011;26977;44.830;-0.674;2022-12-17T00:34:10;16.02;;;8.07;;
35689;SDS011;26977;44.830;-0.674;2022-12-17T00:36:55;15.00;;;7.93;;
35689;SDS011;26977;44.830;-0.674;2022-12-17T00:39:39;17.13;;;8.75;;
35689;SDS011;26977;44.830;-0.674;2022-12-17T00:42:23;18.67;;;9.02;;
35689;SDS011;26977;44.830;-0.674;2022-12-17T00:45:07;17.92;;;8.43;;
35689;SDS011;26977;44.830;-0.674;2022-12-17T00:47:52;15.40;;;7.80;;
35689;SDS011;26977;44.830;-0.674;2022-12-17T00:50:36;14.73;;;8.15;;
35689;SDS011;26977;44.830;-0.674;2022-12-17T00:53:20;16.75;;;9.23;;
35689;SDS011;26977;44.830;-0.674;2022-12-17T00:56:04;18.85;;;8.68;;
35689;SDS011;26977;44.830;-0.674;2022-12-17T00:58:48;16.40;;;8.27;;
35689;SDS011;26977;44.830;-0.674;2022-12-17T01:01:32;20.17;;;8.45;;
35689;SDS011;26977;44.830;-0.674;2022-12-17T01:04:16;17.80;;;8.02;;
35689;SDS011;26977;44.830;-0.674;2022-12-17T01:07:03;17.13;;;8.40;;
35689;SDS011;26977;44.830;-0.674;2022-12-17T01:09:48;19.23;;;8.77;;
35689;SDS011;26977;44.830;-0.674;2022-12-17T01:12:32;15.98;;;8.10;;
35689;SDS011;26977;44.830;-0.674;2022-12-17T01:15:17;19.50;;;9.02;;
35689;SDS011;26977;44.830;-0.674;2022-12-17T01:18:01;20.35;;;9.45;;
35689;SDS011;26977;44.830;-0.674;2022-12-17T01:20:45;19.90;;;9.05;;
35689;SDS011;26977;44.830;-0.674;2022-12-17T01:23:29;18.20;;;8.70;;
35689;SDS011;26977;44.830;-0.674;2022-12-17T01:26:13;18.35;;;8.38;;
35689;SDS011;26977;44.830;-0.674;2022-12-17T01:28:57;17.95;;;9.32;;
35689;SDS011;26977;44.830;-0.674;2022-12-17T01:31:41;18.58;;;9.13;;
35689;SDS011;26977;44.830;-0.674;2022-12-17T01:34:26;16.35;;;8.93;;
35689;SDS011;26977;44.830;-0.674;2022-12-17T01:37:13;20.73;;;8.85;;
35689;SDS011;26977;44.830;-0.674;2022-12-17T01:40:17;16.75;;;8.73;;
35689;SDS011;26977;44.830;-0.674;2022-12-17T01:43:01;17.23;;;7.78;;
35689;SDS011;26977;44.830;-0.674;2022-12-17T01:45:48;16.52;;;8.07;;
35689;SDS011;26977;44.830;-0.674;2022-12-17T01:48:36;18.95;;;8.65;;
35689;SDS011;26977;44.830;-0.674;2022-12-17T01:51:24;18.00;;;9.18;;
35689;SDS011;26977;44.830;-0.674;2022-12-17T01:54:09;17.88;;;8.57;;
35689;SDS011;26977;44.830;-0.674;2022-12-17T01:56:54;19.65;;;8.45;;
35689;SDS011;26977;44.830;-0.674;2022-12-17T02:02:30;16.92;;;8.85;;
35689;SDS011;26977;44.830;-0.674;2022-12-17T02:05:14;19.52;;;8.70;;
35689;SDS011;26977;44.830;-0.674;2022-12-17T02:11:08;19.83;;;9.35;;
35689;SDS011;26977;44.830;-0.674;2022-12-17T02:16:56;20.00;;;9.18;;
35689;SDS011;26977;44.830;-0.674;2022-12-17T02:29:26;18.15;;;9.25;;
35689;SDS011;26977;44.830;-0.674;2022-12-17T02:32:13;17.92;;;8.60;;
35689;SDS011;26977;44.830;-0.674;2022-12-17T02:35:01;21.52;;;8.60;;
35689;SDS011;26977;44.830;-0.674;2022-12-17T02:37:49;17.08;;;8.55;;
35689;SDS011;26977;44.830;-0.674;2022-12-17T02:40:34;18.65;;;8.40;;
35689;SDS011;26977;44.830;-0.674;2022-12-17T02:43:20;15.80;;;8.45;;
35689;SDS011;26977;44.830;-0.674;2022-12-17T02:46:07;17.58;;;8.18;;
35689;SDS011;26977;44.830;-0.674;2022-12-17T02:48:52;20.80;;;9.10;;
35689;SDS011;26977;44.830;-0.674;2022-12-17T02:51:37;15.52;;;7.97;;
35689;SDS011;26977;44.830;-0.674;2022-12-17T02:54:21;15.55;;;8.15;;
35689;SDS011;26977;44.830;-0.674;2022-12-17T02:57:06;18.38;;;8.35;;
35689;SDS011;26977;44.830;-0.674;2022-12-17T02:59:51;16.73;;;7.57;;
35689;SDS011;26977;44.830;-0.674;2022-12-17T03:02:35;19.73;;;8.07;;
35689;SDS011;26977;44.830;-0.674;2022-12-17T03:05:19;16.80;;;8.43;;
35689;SDS011;26977;44.830;-0.674;2022-12-17T03:08:03;15.60;;;7.85;;
35689;SDS011;26977;44.830;-0.674;2022-12-17T03:10:47;17.30;;;7.18;;
35689;SDS011;26977;44.830;-0.674;2022-12-17T03:13:32;14.38;;;7.18;;
35689;SDS011;26977;44.830;-0.674;2022-12-17T03:16:17;16.70;;;7.25;;
35689;SDS011;26977;44.830;-0.674;2022-12-17T03:19:01;15.32;;;7.72;;
35689;SDS011;26977;44.830;-0.674;2022-12-17T03:21:46;14.85;;;7.63;;
35689;SDS011;26977;44.830;-0.674;2022-12-17T03:24:30;14.75;;;7.05;;
35689;SDS011;26977;44.830;-0.674;2022-12-17T03:27:14;14.93;;;7.15;;
35689;SDS011;26977;44.830;-0.674;2022-12-17T03:29:58;13.95;;;6.75;;
35689;SDS011;26977;44.830;-0.674;2022-12-17T03:32:42;15.82;;;7.45;;
35689;SDS011;26977;44.830;-0.674;2022-12-17T03:35:26;13.80;;;7.03;;
35689;SDS011;26977;44.830;-0.674;2022-12-17T03:38:11;17.40;;;7.13;;
35689;SDS011;26977;44.830;-0.674;2022-12-17T03:40:55;14.02;;;7.18;;
35689;SDS011;26977;44.830;-0.674;2022-12-17T03:43:40;15.25;;;7.43;;
35689;SDS011;26977;44.830;-0.674;2022-12-17T03:46:25;13.73;;;7.40;;
35689;SDS011;26977;44.830;-0.674;2022-12-17T03:49:09;15.18;;;7.15;;
35689;SDS011;26977;44.830;-0.674;2022-12-17T03:51:55;15.65;;;7.45;;
35689;SDS011;26977;44.830;-0.674;2022-12-17T03:54:39;19.30;;;7.93;;
35689;SDS011;26977;44.830;-0.674;2022-12-17T03:57:24;17.80;;;7.82;;
35689;SDS011;26977;44.830;-0.674;2022-12-17T04:00:08;13.82;;;6.95;;
35689;SDS011;26977;44.830;-0.674;2022-12-17T04:02:53;13.52;;;6.80;;
35689;SDS011;26977;44.830;-0.674;2022-12-17T04:05:37;16.08;;;6.97;;
35689;SDS011;26977;44.830;-0.674;2022-12-17T04:08:21;13.98;;;7.07;;
35689;SDS011;26977;44.830;-0.674;2022-12-17T04:11:05;13.98;;;6.93;;
35689;SDS011;26977;44.830;-0.674;2022-12-17T04:13:50;17.92;;;7.35;;
35689;SDS011;26977;44.830;-0.674;2022-12-17T04:16:35;14.23;;;7.22;;
35689;SDS011;26977;44.830;-0.674;2022-12-17T04:19:19;16.00;;;7.32;;
35689;SDS011;26977;44.830;-0.674;2022-12-17T04:22:04;13.18;;;7.00;;
35689;SDS011;26977;44.830;-0.674;2022-12-17T04:24:56;18.48;;;7.15;;
35689;SDS011;26977;44.830;-0.674;2022-12-17T04:27:40;15.27;;;7.53;;
35689;SDS011;26977;44.830;-0.674;2022-12-17T04:30:25;15.20;;;7.45;;
35689;SDS011;26977;44.830;-0.674;2022-12-17T04:33:09;15.27;;;7.75;;
35689;SDS011;26977;44.830;-0.674;2022-12-17T04:35:53;24.00;;;7.40;;
35689;SDS011;26977;44.830;-0.674;2022-12-17T04:38:38;15.65;;;6.85;;
35689;SDS011;26977;44.830;-0.674;2022-12-17T04:41:22;16.58;;;6.90;;
35689;SDS011;26977;44.830;-0.674;2022-12-17T04:44:07;13.25;;;7.13;;
35689;SDS011;26977;44.830;-0.674;2022-12-17T04:46:51;14.77;;;6.65;;
35689;SDS011;26977;44.830;-0.674;2022-12-17T04:49:35;16.05;;;6.88;;
35689;SDS011;26977;44.830;-0.674;2022-12-17T04:52:19;14.40;;;6.88;;
35689;SDS011;26977;44.830;-0.674;2022-12-17T04:55:03;15.25;;;6.95;;
35689;SDS011;26977;44.830;-0.674;2022-12-17T04:57:47;16.65;;;7.30;;
35689;SDS011;26977;44.830;-0.674;2022-12-17T05:00:31;14.27;;;7.03;;
35689;SDS011;26977;44.830;-0.674;2022-12-17T05:03:15;20.92;;;6.78;;
35689;SDS011;26977;44.830;-0.674;2022-12-17T05:06:00;16.10;;;7.18;;
35689;SDS011;26977;44.830;-0.674;2022-12-17T05:08:44;17.90;;;7.07;;
35689;SDS011;26977;44.830;-0.674;2022-12-17T05:11:29;15.30;;;7.50;;
35689;SDS011;26977;44.830;-0.674;2022-12-17T05:14:13;17.30;;;7.70;;
35689;SDS011;26977;44.830;-0.674;2022-12-17T05:16:57;14.82;;;6.93;;
35689;SDS011;26977;44.830;-0.674;2022-12-17T05:19:41;18.65;;;8.10;;
35689;SDS011;26977;44.830;-0.674;2022-12-17T05:22:26;21.23;;;7.57;;
35689;SDS011;26977;44.830;-0.674;2022-12-17T05:25:10;16.35;;;7.82;;
35689;SDS011;26977;44.830;-0.674;2022-12-17T05:27:54;18.40;;;8.20;;
35689;SDS011;26977;44.830;-0.674;2022-12-17T05:30:38;16.73;;;7.65;;
35689;SDS011;26977;44.830;-0.674;2022-12-17T05:33:24;18.90;;;7.60;;
35689;SDS011;26977;44.830;-0.674;2022-12-17T05:36:08;15.82;;;8.02;;
35689;SDS011;26977;44.830;-0.674;2022-12-17T05:38:52;16.67;;;7.93;;
35689;SDS011;26977;44.830;-0.674;2022-12-17T05:41:36;18.85;;;8.43;;
35689;SDS011;26977;44.830;-0.674;2022-12-17T05:44:21;14.60;;;7.18;;
35689;SDS011;26977;44.830;-0.674;2022-12-17T05:47:05;14.50;;;7.20;;
35689;SDS011;26977;44.830;-0.674;2022-12-17T05:49:49;15.15;;;7.32;;
35689;SDS011;26977;44.830;-0.674;2022-12-17T05:52:33;19.25;;;7.50;;
35689;SDS011;26977;44.830;-0.674;2022-12-17T05:55:18;18.60;;;8.40;;
35689;SDS011;26977;44.830;-0.674;2022-12-17T05:58:03;17.10;;;7.95;;
35689;SDS011;26977;44.830;-0.674;2022-12-17T06:00:48;19.30;;;7.72;;
35689;SDS011;26977;44.830;-0.674;2022-12-17T06:03:37;18.42;;;7.45;;
35689;SDS011;26977;44.830;-0.674;2022-12-17T06:06:21;17.42;;;8.18;;
35689;SDS011;26977;44.830;-0.674;2022-12-17T06:09:05;15.85;;;7.70;;
35689;SDS011;26977;44.830;-0.674;2022-12-17T06:11:49;19.30;;;7.85;;
35689;SDS011;26977;44.830;-0.674;2022-12-17T06:14:34;17.45;;;8.13;;
35689;SDS011;26977;44.830;-0.674;2022-12-17T06:17:17;17.48;;;8.00;;
35689;SDS011;26977;44.830;-0.674;2022-12-17T06:20:02;15.23;;;8.20;;
35689;SDS011;26977;44.830;-0.674;2022-12-17T06:22:57;18.98;;;8.73;;
35689;SDS011;26977;44.830;-0.674;2022-12-17T06:25:45;18.58;;;7.65;;
35689;SDS011;26977;44.830;-0.674;2022-12-17T06:28:29;20.73;;;8.80;;
35689;SDS011;26977;44.830;-0.674;2022-12-17T06:31:13;17.55;;;8.38;;
35689;SDS011;26977;44.830;-0.674;2022-12-17T06:33:58;19.13;;;8.40;;
35689;SDS011;26977;44.830;-0.674;2022-12-17T06:36:42;17.73;;;8.13;;
35689;SDS011;26977;44.830;-0.674;2022-12-17T06:39:27;17.80;;;8.18;;
35689;SDS011;26977;44.830;-0.674;2022-12-17T06:42:13;17.92;;;8.10;;
35689;SDS011;26977;44.830;-0.674;2022-12-17T06:44:57;18.75;;;7.78;;
35689;SDS011;26977;44.830;-0.674;2022-12-17T06:47:41;19.20;;;8.27;;
35689;SDS011;26977;44.830;-0.674;2022-12-17T06:50:26;19.77;;;8.80;;
35689;SDS011;26977;44.830;-0.674;2022-12-17T06:53:10;17.92;;;8.93;;
35689;SDS011;26977;44.830;-0.674;2022-12-17T06:55:56;17.98;;;8.60;;
35689;SDS011;26977;44.830;-0.674;2022-12-17T06:58:41;21.08;;;9.32;;
35689;SDS011;26977;44.830;-0.674;2022-12-17T07:01:25;21.45;;;9.10;;
35689;SDS011;26977;44.830;-0.674;2022-12-17T07:04:09;20.30;;;9.10;;
35689;SDS011;26977;44.830;-0.674;2022-12-17T07:06:53;22.17;;;8.95;;
35689;SDS011;26977;44.830;-0.674;2022-12-17T07:09:38;20.27;;;9.18;;
35689;SDS011;26977;44.830;-0.674;2022-12-17T07:12:22;17.92;;;9.13;;
35689;SDS011;26977;44.830;-0.674;2022-12-17T07:15:06;16.65;;;8.85;;
35689;SDS011;26977;44.830;-0.674;2022-12-17T07:17:57;23.25;;;9.48;;
35689;SDS011;26977;44.830;-0.674;2022-12-17T07:20:43;20.58;;;9.85;;
35689;SDS011;26977;44.830;-0.674;2022-12-17T07:23:28;17.98;;;9.18;;
35689;SDS011;26977;44.830;-0.674;2022-12-17T07:26:12;16.67;;;8.57;;
35689;SDS011;26977;44.830;-0.674;2022-12-17T07:28:57;16.38;;;8.18;;
35689;SDS011;26977;44.830;-0.674;2022-12-17T07:31:41;20.40;;;8.48;;
35689;SDS011;26977;44.830;-0.674;2022-12-17T07:34:26;15.65;;;8.15;;
35689;SDS011;26977;44.830;-0.674;2022-12-17T07:37:10;18.02;;;8.95;;
35689;SDS011;26977;44.830;-0.674;2022-12-17T07:39:55;18.40;;;7.65;;
35689;SDS011;26977;44.830;-0.674;2022-12-17T07:42:39;16.80;;;7.55;;
35689;SDS011;26977;44.830;-0.674;2022-12-17T07:45:23;18.83;;;7.95;;
35689;SDS011;26977;44.830;-0.674;2022-12-17T07:48:09;16.75;;;7.82;;
35689;SDS011;26977;44.830;-0.674;2022-12-17T07:50:53;16.88;;;7.90;;
35689;SDS011;26977;44.830;-0.674;2022-12-17T07:53:37;18.10;;;8.27;;
35689;SDS011;26977;44.830;-0.674;2022-12-17T07:56:21;19.58;;;8.73;;
35689;SDS011;26977;44.830;-0.674;2022-12-17T07:59:06;20.02;;;8.70;;
35689;SDS011;26977;44.830;-0.674;2022-12-17T08:01:50;18.88;;;8.52;;
35689;SDS011;26977;44.830;-0.674;2022-12-17T08:04:34;17.90;;;9.07;;
35689;SDS011;26977;44.830;-0.674;2022-12-17T08:07:19;20.75;;;9.40;;
35689;SDS011;26977;44.830;-0.674;2022-12-17T08:10:03;20.40;;;9.50;;
35689;SDS011;26977;44.830;-0.674;2022-12-17T08:12:58;21.23;;;10.18;;
35689;SDS011;26977;44.830;-0.674;2022-12-17T08:15:44;20.48;;;10.10;;
35689;SDS011;26977;44.830;-0.674;2022-12-17T08:18:29;21.95;;;11.07;;
35689;SDS011;26977;44.830;-0.674;2022-12-17T08:21:13;20.80;;;10.02;;
35689;SDS011;26977;44.830;-0.674;2022-12-17T08:23:58;22.98;;;10.77;;
35689;SDS011;26977;44.830;-0.674;2022-12-17T08:26:42;23.38;;;10.82;;
35689;SDS011;26977;44.830;-0.674;2022-12-17T08:29:26;21.23;;;10.43;;
35689;SDS011;26977;44.830;-0.674;2022-12-17T08:32:11;22.23;;;10.45;;
35689;SDS011;26977;44.830;-0.674;2022-12-17T08:34:56;20.85;;;10.57;;
35689;SDS011;26977;44.830;-0.674;2022-12-17T08:37:40;22.67;;;12.07;;
35689;SDS011;26977;44.830;-0.674;2022-12-17T08:40:24;23.67;;;12.07;;
35689;SDS011;26977;44.830;-0.674;2022-12-17T08:43:09;26.65;;;11.20;;
35689;SDS011;26977;44.830;-0.674;2022-12-17T08:45:53;23.50;;;11.50;;
35689;SDS011;26977;44.830;-0.674;2022-12-17T08:48:37;29.80;;;12.07;;
35689;SDS011;26977;44.830;-0.674;2022-12-17T08:51:22;21.77;;;10.80;;
35689;SDS011;26977;44.830;-0.674;2022-12-17T08:54:06;20.63;;;10.60;;
35689;SDS011;26977;44.830;-0.674;2022-12-17T08:56:51;21.83;;;10.10;;
35689;SDS011;26977;44.830;-0.674;2022-12-17T08:59:36;23.30;;;10.35;;
35689;SDS011;26977;44.830;-0.674;2022-12-17T09:02:20;21.40;;;10.85;;
35689;SDS011;26977;44.830;-0.674;2022-12-17T09:05:05;23.70;;;10.57;;
35689;SDS011;26977;44.830;-0.674;2022-12-17T09:07:56;22.13;;;10.23;;
35689;SDS011;26977;44.830;-0.674;2022-12-17T09:10:44;24.08;;;10.23;;
35689;SDS011;26977;44.830;-0.674;2022-12-17T09:13:29;17.73;;;8.40;;
35689;SDS011;26977;44.830;-0.674;2022-12-17T09:16:13;16.15;;;8.77;;
35689;SDS011;26977;44.830;-0.674;2022-12-17T09:18:58;15.02;;;7.80;;
35689;SDS011;26977;44.830;-0.674;2022-12-17T09:21:42;19.67;;;8.50;;
35689;SDS011;26977;44.830;-0.674;2022-12-17T09:24:26;18.50;;;9.20;;
35689;SDS011;26977;44.830;-0.674;2022-12-17T09:27:12;21.23;;;8.73;;
35689;SDS011;26977;44.830;-0.674;2022-12-17T09:29:56;17.42;;;8.50;;
35689;SDS011;26977;44.830;-0.674;2022-12-17T09:32:40;14.20;;;8.25;;
35689;SDS011;26977;44.830;-0.674;2022-12-17T09:35:24;18.77;;;9.63;;
35689;SDS011;26977;44.830;-0.674;2022-12-17T09:38:12;18.50;;;9.00;;
35689;SDS011;26977;44.830;-0.674;2022-12-17T09:40:59;19.45;;;9.77;;
35689;SDS011;26977;44.830;-0.674;2022-12-17T09:43:52;18.80;;;10.05;;
35689;SDS011;26977;44.830;-0.674;2022-12-17T09:46:45;22.50;;;10.43;;
35689;SDS011;26977;44.830;-0.674;2022-12-17T09:49:32;19.75;;;8.98;;
35689;SDS011;26977;44.830;-0.674;2022-12-17T09:55:13;17.08;;;8.32;;
35689;SDS011;26977;44.830;-0.674;2022-12-17T10:01:09;14.23;;;8.35;;
35689;SDS011;26977;44.830;-0.674;2022-12-17T10:04:02;16.05;;;8.10;;
35689;SDS011;26977;44.830;-0.674;2022-12-17T10:06:49;15.38;;;9.50;;
35689;SDS011;26977;44.830;-0.674;2022-12-17T10:09:33;14.98;;;7.70;;
35689;SDS011;26977;44.830;-0.674;2022-12-17T10:12:19;17.17;;;8.48;;
35689;SDS011;26977;44.830;-0.674;2022-12-17T10:15:04;17.90;;;8.45;;
35689;SDS011;26977;44.830;-0.674;2022-12-17T10:17:49;15.77;;;8.77;;
35689;SDS011;26977;44.830;-0.674;2022-12-17T10:20:38;16.10;;;8.02;;
35689;SDS011;26977;44.830;-0.674;2022-12-17T10:23:31;14.75;;;8.82;;
35689;SDS011;26977;44.830;-0.674;2022-12-17T10:26:17;18.05;;;9.85;;
35689;SDS011;26977;44.830;-0.674;2022-12-17T10:29:11;17.02;;;9.25;;
35689;SDS011;26977;44.830;-0.674;2022-12-17T10:35:06;21.17;;;9.63;;
35689;SDS011;26977;44.830;-0.674;2022-12-17T10:41:17;20.23;;;8.57;;
35689;SDS011;26977;44.830;-0.674;2022-12-17T10:44:18;16.42;;;9.07;;
35689;SDS011;26977;44.830;-0.674;2022-12-17T10:47:03;17.48;;;9.27;;
35689;SDS011;26977;44.830;-0.674;2022-12-17T10:49:55;18.38;;;9.20;;
35689;SDS011;26977;44.830;-0.674;2022-12-17T10:52:43;18.92;;;10.00;;
35689;SDS011;26977;44.830;-0.674;2022-12-17T10:55:29;18.48;;;9.13;;
35689;SDS011;26977;44.830;-0.674;2022-12-17T10:58:35;17.10;;;9.35;;
35689;SDS011;26977;44.830;-0.674;2022-12-17T11:01:20;17.13;;;9.18;;
35689;SDS011;26977;44.830;-0.674;2022-12-17T11:07:21;16.92;;;9.10;;
35689;SDS011;26977;44.830;-0.674;2022-12-17T11:10:16;16.85;;;8.93;;
35689;SDS011;26977;44.830;-0.674;2022-12-17T11:16:24;19.08;;;9.15;;
35689;SDS011;26977;44.830;-0.674;2022-12-17T11:22:06;18.60;;;9.23;;
35689;SDS011;26977;44.830;-0.674;2022-12-17T11:28:24;20.63;;;8.60;;
35689;SDS011;26977;44.830;-0.674;2022-12-17T11:40:19;14.10;;;8.27;;
35689;SDS011;26977;44.830;-0.674;2022-12-17T11:43:15;22.42;;;8.57;;
35689;SDS011;26977;44.830;-0.674;2022-12-17T11:52:14;16.08;;;8.48;;
35689;SDS011;26977;44.830;-0.674;2022-12-17T11:58:49;16.30;;;8.18;;
35689;SDS011;26977;44.830;-0.674;2022-12-17T12:01:40;15.38;;;8.30;;
35689;SDS011;26977;44.830;-0.674;2022-12-17T12:07:39;18.13;;;9.00;;
35689;SDS011;26977;44.830;-0.674;2022-12-17T12:10:33;16.70;;;8.98;;
35689;SDS011;26977;44.830;-0.674;2022-12-17T12:13:41;20.27;;;9.02;;
35689;SDS011;26977;44.830;-0.674;2022-12-17T12:16:41;15.13;;;8.95;;
35689;SDS011;26977;44.830;-0.674;2022-12-17T12:34:07;19.17;;;9.85;;
35689;SDS011;26977;44.830;-0.674;2022-12-17T12:36:58;18.00;;;9.43;;
35689;SDS011;26977;44.830;-0.674;2022-12-17T12:39:48;16.95;;;9.43;;
35689;SDS011;26977;44.830;-0.674;2022-12-17T12:45:45;16.27;;;9.95;;
35689;SDS011;26977;44.830;-0.674;2022-12-17T12:48:41;17.33;;;9.10;;
35689;SDS011;26977;44.830;-0.674;2022-12-17T12:51:35;15.93;;;9.10;;
35689;SDS011;26977;44.830;-0.674;2022-12-17T12:54:21;16.02;;;9.63;;
35689;SDS011;26977;44.830;-0.674;2022-12-17T13:11:40;16.15;;;9.30;;
35689;SDS011;26977;44.830;-0.674;2022-12-17T13:14:30;16.25;;;8.80;;
35689;SDS011;26977;44.830;-0.674;2022-12-17T13:19:44;14.93;;;8.10;;
35689;SDS011;26977;44.830;-0.674;2022-12-17T13:24:44;14.30;;;8.45;;
35689;SDS011;26977;44.830;-0.674;2022-12-17T13:29:58;15.93;;;9.10;;
35689;SDS011;26977;44.830;-0.674;2022-12-17T13:32:38;16.20;;;8.50;;
35689;SDS011;26977;44.830;-0.674;2022-12-17T13:38:00;14.30;;;8.13;;
35689;SDS011;26977;44.830;-0.674;2022-12-17T13:43:38;12.32;;;7.60;;
35689;SDS011;26977;44.830;-0.674;2022-12-17T13:46:15;13.73;;;7.47;;
35689;SDS011;26977;44.830;-0.674;2022-12-17T13:48:56;11.38;;;6.75;;
35689;SDS011;26977;44.830;-0.674;2022-12-17T13:51:26;12.35;;;7.57;;
35689;SDS011;26977;44.830;-0.674;2022-12-17T13:53:55;12.02;;;7.25;;
35689;SDS011;26977;44.830;-0.674;2022-12-17T13:56:27;10.95;;;6.70;;
35689;SDS011;26977;44.830;-0.674;2022-12-17T13:58:58;12.82;;;7.25;;
35689;SDS011;26977;44.830;-0.674;2022-12-17T14:01:26;11.70;;;7.43;;
35689;SDS011;26977;44.830;-0.674;2022-12-17T14:03:54;13.25;;;7.22;;
35689;SDS011;26977;44.830;-0.674;2022-12-17T14:06:35;11.77;;;7.57;;
35689;SDS011;26977;44.830;-0.674;2022-12-17T14:09:02;16.77;;;6.90;;
35689;SDS011;26977;44.830;-0.674;2022-12-17T14:11:28;14.40;;;7.57;;
35689;SDS011;26977;44.830;-0.674;2022-12-17T14:14:36;13.70;;;7.55;;
35689;SDS011;26977;44.830;-0.674;2022-12-17T14:17:04;13.18;;;7.57;;
35689;SDS011;26977;44.830;-0.674;2022-12-17T14:19:31;15.35;;;7.28;;
35689;SDS011;26977;44.830;-0.674;2022-12-17T14:21:57;11.52;;;7.13;;
35689;SDS011;26977;44.830;-0.674;2022-12-17T14:24:24;13.13;;;7.43;;
35689;SDS011;26977;44.830;-0.674;2022-12-17T14:26:57;13.02;;;7.68;;
35689;SDS011;26977;44.830;-0.674;2022-12-17T14:29:25;12.63;;;6.43;;
35689;SDS011;26977;44.830;-0.674;2022-12-17T14:31:57;10.35;;;6.35;;
35689;SDS011;26977;44.830;-0.674;2022-12-17T14:34:24;12.75;;;7.53;;
35689;SDS011;26977;44.830;-0.674;2022-12-17T14:36:57;11.35;;;6.88;;
35689;SDS011;26977;44.830;-0.674;2022-12-17T14:39:25;17.65;;;7.75;;
35689;SDS011;26977;44.830;-0.674;2022-12-17T14:41:55;12.88;;;6.97;;
35689;SDS011;26977;44.830;-0.674;2022-12-17T14:44:51;14.60;;;7.90;;
35689;SDS011;26977;44.830;-0.674;2022-12-17T14:47:31;12.65;;;7.43;;
35689;SDS011;26977;44.830;-0.674;2022-12-17T14:50:03;12.93;;;7.45;;
35689;SDS011;26977;44.830;-0.674;2022-12-17T14:52:44;12.60;;;7.25;;
35689;SDS011;26977;44.830;-0.674;2022-12-17T14:55:30;13.57;;;7.60;;
35689;SDS011;26977;44.830;-0.674;2022-12-17T15:00:33;13.43;;;6.60;;
35689;SDS011;26977;44.830;-0.674;2022-12-17T15:03:22;9.48;;;6.22;;
35689;SDS011;26977;44.830;-0.674;2022-12-17T15:05:50;10.38;;;6.50;;
35689;SDS011;26977;44.830;-0.674;2022-12-17T15:08:19;12.85;;;6.65;;
35689;SDS011;26977;44.830;-0.674;2022-12-17T15:10:45;9.68;;;6.55;;
35689;SDS011;26977;44.830;-0.674;2022-12-17T15:13:11;12.07;;;7.32;;
35689;SDS011;26977;44.830;-0.674;2022-12-17T15:15:37;10.65;;;7.45;;
35689;SDS011;26977;44.830;-0.674;2022-12-17T15:18:03;10.68;;;7.30;;
35689;SDS011;26977;44.830;-0.674;2022-12-17T15:20:29;12.63;;;7.10;;
35689;SDS011;26977;44.830;-0.674;2022-12-17T15:22:55;10.85;;;7.85;;
35689;SDS011;26977;44.830;-0.674;2022-12-17T15:25:21;9.45;;;6.78;;
35689;SDS011;26977;44.830;-0.674;2022-12-17T15:27:47;12.75;;;8.07;;
35689;SDS011;26977;44.830;-0.674;2022-12-17T15:30:14;14.98;;;8.35;;
35689;SDS011;26977;44.830;-0.674;2022-12-17T15:32:41;12.15;;;7.90;;
35689;SDS011;26977;44.830;-0.674;2022-12-17T15:35:07;14.25;;;7.90;;
35689;SDS011;26977;44.830;-0.674;2022-12-17T15:37:35;12.88;;;8.27;;
35689;SDS011;26977;44.830;-0.674;2022-12-17T15:40:01;13.27;;;8.82;;
35689;SDS011;26977;44.830;-0.674;2022-12-17T15:42:27;12.48;;;8.55;;
35689;SDS011;26977;44.830;-0.674;2022-12-17T15:45:12;14.82;;;8.95;;
35689;SDS011;26977;44.830;-0.674;2022-12-17T15:47:38;15.52;;;8.68;;
35689;SDS011;26977;44.830;-0.674;2022-12-17T15:50:04;13.52;;;8.88;;
35689;SDS011;26977;44.830;-0.674;2022-12-17T15:52:31;16.00;;;9.57;;
35689;SDS011;26977;44.830;-0.674;2022-12-17T15:54:57;14.07;;;9.63;;
35689;SDS011;26977;44.830;-0.674;2022-12-17T15:57:23;16.60;;;10.00;;
35689;SDS011;26977;44.830;-0.674;2022-12-17T15:59:52;18.88;;;9.00;;
35689;SDS011;26977;44.830;-0.674;2022-12-17T16:02:17;13.60;;;9.00;;
35689;SDS011;26977;44.830;-0.674;2022-12-17T16:04:43;18.33;;;10.10;;
35689;SDS011;26977;44.830;-0.674;2022-12-17T16:07:09;17.17;;;9.82;;
35689;SDS011;26977;44.830;-0.674;2022-12-17T16:09:35;18.10;;;9.55;;
35689;SDS011;26977;44.830;-0.674;2022-12-17T16:12:01;17.63;;;9.70;;
35689;SDS011;26977;44.830;-0.674;2022-12-17T16:14:26;18.58;;;9.77;;
35689;SDS011;26977;44.830;-0.674;2022-12-17T16:16:52;16.20;;;9.77;;
35689;SDS011;26977;44.830;-0.674;2022-12-17T16:19:18;16.65;;;9.55;;
35689;SDS011;26977;44.830;-0.674;2022-12-17T16:21:46;18.13;;;9.88;;
35689;SDS011;26977;44.830;-0.674;2022-12-17T16:24:12;16.80;;;9.70;;
35689;SDS011;26977;44.830;-0.674;2022-12-17T16:26:38;20.70;;;11.93;;
35689;SDS011;26977;44.830;-0.674;2022-12-17T16:29:03;24.50;;;11.00;;
35689;SDS011;26977;44.830;-0.674;2022-12-17T16:31:30;24.30;;;13.27;;
35689;SDS011;26977;44.830;-0.674;2022-12-17T16:33:56;27.70;;;13.00;;
35689;SDS011;26977;44.830;-0.674;2022-12-17T16:36:21;23.10;;;13.00;;
35689;SDS011;26977;44.830;-0.674;2022-12-17T16:38:49;23.02;;;13.02;;
35689;SDS011;26977;44.830;-0.674;2022-12-17T16:41:16;25.30;;;13.40;;
35689;SDS011;26977;44.830;-0.674;2022-12-17T16:43:43;28.05;;;14.07;;
35689;SDS011;26977;44.830;-0.674;2022-12-17T16:51:34;31.77;;;14.68;;
35689;SDS011;26977;44.830;-0.674;2022-12-17T16:54:05;25.08;;;15.00;;
35689;SDS011;26977;44.830;-0.674;2022-12-17T16:56:33;25.00;;;13.73;;
35689;SDS011;26977;44.830;-0.674;2022-12-17T16:59:00;31.10;;;15.57;;
35689;SDS011;26977;44.830;-0.674;2022-12-17T17:01:29;29.63;;;15.38;;
35689;SDS011;26977;44.830;-0.674;2022-12-17T17:03:55;28.58;;;15.07;;
35689;SDS011;26977;44.830;-0.674;2022-12-17T17:06:22;32.03;;;16.92;;
35689;SDS011;26977;44.830;-0.674;2022-12-17T17:08:48;32.33;;;17.55;;
35689;SDS011;26977;44.830;-0.674;2022-12-17T17:11:15;37.80;;;20.38;;
35689;SDS011;26977;44.830;-0.674;2022-12-17T17:13:43;40.05;;;20.08;;
35689;SDS011;26977;44.830;-0.674;2022-12-17T17:16:09;36.95;;;19.50;;
35689;SDS011;26977;44.830;-0.674;2022-12-17T17:18:36;42.33;;;21.73;;
35689;SDS011;26977;44.830;-0.674;2022-12-17T17:26:25;40.92;;;22.15;;
35689;SDS011;26977;44.830;-0.674;2022-12-17T17:28:53;43.53;;;22.45;;
35689;SDS011;26977;44.830;-0.674;2022-12-17T17:31:18;42.83;;;22.17;;
35689;SDS011;26977;44.830;-0.674;2022-12-17T17:33:46;47.35;;;25.45;;
35689;SDS011;26977;44.830;-0.674;2022-12-17T17:38:38;44.83;;;24.73;;
35689;SDS011;26977;44.830;-0.674;2022-12-17T17:41:05;47.85;;;24.85;;
35689;SDS011;26977;44.830;-0.674;2022-12-17T17:43:34;47.75;;;25.05;;
35689;SDS011;26977;44.830;-0.674;2022-12-17T17:46:18;49.42;;;26.00;;
35689;SDS011;26977;44.830;-0.674;2022-12-17T17:48:45;51.92;;;27.70;;